Time;durP1;ratioP1;P1;durP2;ratioP2;P2;SDS_P1;SDS_P2;PMS_P1;PMS_P2;Temp;Humidity;BMP_temperature;BMP_pressure;BME280_temperature;BME280_humidity;BME280_pressure;Samples;Min_cycle;Max_cycle;Signal;HPM_P1;HPM_P2
2023/03/09 00:01:25;;;;;;;3.85;3.10;;;8.70;99.90;;;;;;5020236;28;20837;-74
2023/03/09 00:03:51;;;;;;;2.92;2.83;;;8.80;99.90;;;;;;5021140;28;20189;-73
2023/03/09 00:06:17;;;;;;;2.70;2.50;;;8.70;99.90;;;;;;5022241;28;20274;-74
2023/03/09 00:08:42;;;;;;;2.15;2.05;;;8.70;99.90;;;;;;5019591;28;20267;-73
2023/03/09 00:11:08;;;;;;;2.47;2.38;;;8.80;99.90;;;;;;5016686;28;20747;-74
2023/03/09 00:13:34;;;;;;;2.65;2.50;;;8.80;99.90;;;;;;5022060;28;20179;-74
2023/03/09 00:16:25;;;;;;;2.40;2.30;;;8.70;99.90;;;;;;5021944;28;20214;-73
2023/03/09 00:18:52;;;;;;;2.70;2.53;;;8.70;99.90;;;;;;5019014;28;20220;-74
2023/03/09 00:21:34;;;;;;;2.45;2.30;;;8.70;99.90;;;;;;5020857;28;20188;-74
2023/03/09 00:24:04;;;;;;;2.30;2.13;;;8.70;99.90;;;;;;5020919;28;20189;-73
2023/03/09 00:26:30;;;;;;;2.22;2.13;;;8.70;99.90;;;;;;5020550;28;20201;-73
2023/03/09 00:28:55;;;;;;;2.20;2.10;;;8.80;99.90;;;;;;5018760;28;20683;-73
2023/03/09 00:31:21;;;;;;;2.13;2.03;;;8.70;99.90;;;;;;5019316;28;20188;-74
2023/03/09 00:33:48;;;;;;;2.30;2.17;;;8.70;99.90;;;;;;5018823;28;21600;-74
2023/03/09 00:36:14;;;;;;;0.98;0.98;;;8.80;99.90;;;;;;5021695;28;20266;-73
2023/03/09 00:38:40;;;;;;;2.00;1.90;;;8.70;99.90;;;;;;5017665;28;20235;-74
2023/03/09 00:41:05;;;;;;;2.22;2.13;;;8.80;99.90;;;;;;5021728;28;20200;-74
2023/03/09 00:43:31;;;;;;;2.47;2.25;;;8.80;99.90;;;;;;5022105;28;20185;-74
2023/03/09 00:45:56;;;;;;;2.70;2.50;;;8.70;99.90;;;;;;5015500;28;20207;-74
2023/03/09 00:48:22;;;;;;;3.17;2.88;;;8.70;99.90;;;;;;5018374;28;20184;-74
2023/03/09 00:50:48;;;;;;;3.25;3.05;;;8.70;99.90;;;;;;5020321;28;20197;-74
2023/03/09 00:53:13;;;;;;;3.67;3.38;;;8.70;99.90;;;;;;5020564;28;20550;-75
2023/03/09 00:55:39;;;;;;;3.42;3.22;;;8.60;99.90;;;;;;5018987;28;20193;-74
2023/03/09 00:58:04;;;;;;;3.95;3.75;;;8.60;99.90;;;;;;5021773;28;20586;-74
2023/03/09 01:00:33;;;;;;;4.20;3.80;;;8.60;99.90;;;;;;5017832;28;20205;-74
2023/03/09 01:02:59;;;;;;;3.13;2.92;;;8.60;99.90;;;;;;5020993;28;20222;-74
2023/03/09 01:05:25;;;;;;;3.33;3.13;;;8.70;99.90;;;;;;5022255;28;20205;-74
2023/03/09 01:07:50;;;;;;;3.95;3.55;;;8.70;99.90;;;;;;5020285;28;20615;-74
2023/03/09 01:10:16;;;;;;;3.58;3.30;;;8.70;99.90;;;;;;5019418;28;23097;-75
2023/03/09 01:12:42;;;;;;;3.33;3.03;;;8.80;99.90;;;;;;5019010;28;20204;-74
2023/03/09 01:15:08;;;;;;;2.35;2.25;;;8.90;99.90;;;;;;5019906;28;20189;-74
2023/03/09 01:17:34;;;;;;;3.40;3.08;;;8.90;99.90;;;;;;5016631;28;20452;-74
2023/03/09 01:19:59;;;;;;;2.65;2.55;;;8.90;99.90;;;;;;5019755;28;20217;-74
2023/03/09 01:22:25;;;;;;;5.13;3.67;;;8.90;99.90;;;;;;5020797;28;20188;-74
2023/03/09 01:24:51;;;;;;;2.83;2.72;;;8.90;99.90;;;;;;5019838;28;20686;-74
2023/03/09 01:27:16;;;;;;;3.38;3.08;;;8.80;99.90;;;;;;5021751;28;20185;-74
2023/03/09 01:29:42;;;;;;;3.58;3.28;;;8.90;99.90;;;;;;5022030;28;20197;-76
2023/03/09 01:32:07;;;;;;;3.38;3.03;;;8.80;99.90;;;;;;5022958;28;20554;-76
2023/03/09 01:34:33;;;;;;;3.63;3.42;;;8.80;99.90;;;;;;5021798;28;20209;-76
2023/03/09 01:36:58;;;;;;;3.80;3.60;;;8.70;99.90;;;;;;5023082;28;20195;-75
2023/03/09 01:39:24;;;;;;;4.60;4.20;;;8.60;99.90;;;;;;5024755;28;20219;-75
2023/03/09 01:41:49;;;;;;;4.50;4.10;;;8.70;99.90;;;;;;5024206;28;20180;-73
2023/03/09 01:44:15;;;;;;;4.50;4.18;;;8.70;99.90;;;;;;5022590;28;20243;-73
2023/03/09 01:46:56;;;;;;;4.68;4.28;;;8.70;99.90;;;;;;5022412;28;20207;-74
2023/03/09 01:49:27;;;;;;;8.02;6.53;;;8.70;99.90;;;;;;5024675;28;20633;-74
2023/03/09 01:52:18;;;;;;;6.90;6.25;;;8.70;99.90;;;;;;5025792;28;20177;-73
2023/03/09 01:54:50;;;;;;;8.50;6.72;;;8.70;99.90;;;;;;5022486;28;20223;-73
2023/03/09 01:57:29;;;;;;;10.00;7.72;;;8.70;99.90;;;;;;5024716;28;20243;-73
2023/03/09 01:59:59;;;;;;;8.05;6.97;;;8.70;99.90;;;;;;5024179;28;20204;-73
2023/03/09 02:02:29;;;;;;;7.85;6.80;;;8.70;99.90;;;;;;5020648;28;20712;-73
2023/03/09 02:04:59;;;;;;;9.75;6.82;;;8.60;99.90;;;;;;5022864;28;20191;-73
2023/03/09 02:07:25;;;;;;;6.00;5.47;;;8.70;99.90;;;;;;5024121;28;20582;-73
2023/03/09 02:09:58;;;;;;;6.85;6.25;;;8.80;99.90;;;;;;5022869;28;20578;-73
2023/03/09 02:12:25;;;;;;;9.02;6.40;;;8.80;99.90;;;;;;5025249;28;20180;-73
2023/03/09 02:14:51;;;;;;;5.68;4.95;;;8.80;99.90;;;;;;5023870;28;20212;-73
2023/03/09 02:17:17;;;;;;;9.15;6.57;;;8.80;99.90;;;;;;5026171;28;21231;-73
2023/03/09 02:20:05;;;;;;;8.32;6.00;;;8.90;99.90;;;;;;5023448;28;20303;-74
2023/03/09 02:22:34;;;;;;;8.25;6.30;;;9.00;99.90;;;;;;5024525;28;20177;-73
2023/03/09 02:25:18;;;;;;;10.02;7.50;;;8.90;99.90;;;;;;5024966;28;20177;-73
2023/03/09 02:27:45;;;;;;;6.65;5.97;;;8.90;99.90;;;;;;5022306;28;20168;-74
2023/03/09 02:30:11;;;;;;;7.30;6.15;;;9.00;99.90;;;;;;5025538;28;20200;-73
2023/03/09 02:32:37;;;;;;;8.32;4.45;;;9.00;99.90;;;;;;5022822;28;20561;-74
2023/03/09 02:35:03;;;;;;;6.30;5.10;;;9.00;99.90;;;;;;5025472;28;20180;-73
2023/03/09 02:37:38;;;;;;;6.93;4.63;;;9.00;99.90;;;;;;5024079;28;20184;-74
2023/03/09 02:40:18;;;;;;;4.50;3.83;;;9.10;99.90;;;;;;5023408;28;20219;-74
2023/03/09 02:42:45;;;;;;;4.30;3.10;;;9.10;99.90;;;;;;5026504;28;20626;-74
2023/03/09 02:45:14;;;;;;;4.40;3.72;;;9.10;99.90;;;;;;5023193;28;20203;-74
2023/03/09 02:47:40;;;;;;;3.00;2.80;;;9.10;99.90;;;;;;5022462;28;20217;-74
2023/03/09 02:50:09;;;;;;;2.40;2.30;;;9.10;99.90;;;;;;5021132;28;20231;-74
2023/03/09 02:52:36;;;;;;;7.20;2.67;;;9.10;99.90;;;;;;5026153;28;20177;-74
2023/03/09 02:55:02;;;;;;;3.20;2.08;;;9.20;99.90;;;;;;5021114;28;20176;-75
2023/03/09 02:57:28;;;;;;;3.05;2.33;;;9.20;99.90;;;;;;5025902;28;20211;-73
2023/03/09 02:59:54;;;;;;;2.20;2.10;;;9.10;99.90;;;;;;5021871;28;20208;-72
2023/03/09 03:02:19;;;;;;;2.00;1.90;;;9.10;99.90;;;;;;5023608;28;20196;-72
2023/03/09 03:04:45;;;;;;;2.00;1.90;;;9.10;99.90;;;;;;5021408;28;20264;-72
2023/03/09 03:07:11;;;;;;;1.33;1.33;;;9.10;99.90;;;;;;5025229;28;20176;-71
2023/03/09 03:09:36;;;;;;;0.70;0.70;;;9.10;99.90;;;;;;5022977;28;20619;-71
2023/03/09 03:12:02;;;;;;;1.08;0.98;;;9.10;99.90;;;;;;5020567;28;20279;-72
2023/03/09 03:14:28;;;;;;;1.25;1.10;;;9.10;99.90;;;;;;5023827;28;20612;-72
2023/03/09 03:16:53;;;;;;;1.30;1.30;;;9.10;99.90;;;;;;5025036;28;20255;-72
2023/03/09 03:19:20;;;;;;;1.17;1.13;;;9.00;99.90;;;;;;5021810;28;20691;-72
2023/03/09 03:21:45;;;;;;;0.88;0.88;;;9.00;99.90;;;;;;5021457;28;20184;-72
2023/03/09 03:24:11;;;;;;;1.13;1.13;;;9.00;99.90;;;;;;5025221;28;20714;-72
2023/03/09 03:26:37;;;;;;;0.57;0.57;;;9.00;99.90;;;;;;5022063;28;20222;-72
2023/03/09 03:29:02;;;;;;;0.70;0.70;;;8.90;99.90;;;;;;5023775;28;20204;-71
2023/03/09 03:31:28;;;;;;;1.17;0.80;;;8.80;99.90;;;;;;5024661;28;20176;-72
2023/03/09 03:33:54;;;;;;;0.90;0.50;;;8.90;99.90;;;;;;5023614;28;20190;-72
2023/03/09 03:36:19;;;;;;;0.73;0.73;;;8.80;99.90;;;;;;5019765;28;20192;-71
2023/03/09 03:38:45;;;;;;;0.73;0.73;;;8.80;99.90;;;;;;5020401;28;20212;-72
2023/03/09 03:41:10;;;;;;;0.60;0.60;;;8.80;99.90;;;;;;5025170;28;20203;-71
2023/03/09 03:43:36;;;;;;;1.35;1.00;;;8.70;99.90;;;;;;5021726;28;20184;-71
2023/03/09 03:46:01;;;;;;;1.63;0.70;;;8.70;99.90;;;;;;5020535;28;20254;-71
2023/03/09 03:48:27;;;;;;;1.00;1.00;;;8.70;99.90;;;;;;5022734;28;20244;-71
2023/03/09 03:50:53;;;;;;;0.98;0.98;;;8.70;99.90;;;;;;5023678;28;20196;-71
2023/03/09 03:53:18;;;;;;;1.17;1.02;;;8.60;99.90;;;;;;5021900;28;20196;-70
2023/03/09 03:55:44;;;;;;;0.90;0.90;;;8.60;99.90;;;;;;5019522;28;20213;-71
2023/03/09 03:58:10;;;;;;;17.02;2.25;;;8.50;99.90;;;;;;5021603;28;20584;-71
2023/03/09 04:00:35;;;;;;;1.15;0.60;;;8.60;99.90;;;;;;5021866;28;20209;-71
2023/03/09 04:03:01;;;;;;;0.65;0.65;;;8.50;99.90;;;;;;5021391;28;20303;-71
2023/03/09 04:05:26;;;;;;;1.10;0.85;;;8.60;99.90;;;;;;5018017;28;20575;-71
2023/03/09 04:07:52;;;;;;;0.80;0.80;;;8.50;99.90;;;;;;5023508;28;20180;-71
2023/03/09 04:10:18;;;;;;;0.45;0.45;;;8.50;99.90;;;;;;5022868;28;20219;-71
2023/03/09 04:12:44;;;;;;;0.40;0.40;;;8.50;99.90;;;;;;5020786;28;20553;-71
2023/03/09 04:15:10;;;;;;;0.60;0.60;;;8.50;99.90;;;;;;5021510;28;20192;-71
2023/03/09 04:17:35;;;;;;;0.73;0.60;;;8.50;99.90;;;;;;5023964;28;20180;-71
2023/03/09 04:20:02;;;;;;;1.58;0.65;;;8.60;99.90;;;;;;5020135;28;20582;-71
2023/03/09 04:22:27;;;;;;;0.60;0.60;;;8.60;99.90;;;;;;5022151;28;20619;-71
2023/03/09 04:24:53;;;;;;;0.20;0.20;;;8.60;99.90;;;;;;5020715;28;20271;-71
2023/03/09 04:27:19;;;;;;;0.50;0.50;;;8.60;99.90;;;;;;5022979;28;20598;-71
2023/03/09 04:29:44;;;;;;;0.40;0.40;;;8.60;99.90;;;;;;5021963;28;20196;-71
2023/03/09 04:32:10;;;;;;;1.70;1.60;;;8.70;99.90;;;;;;5022092;28;20501;-71
2023/03/09 04:34:35;;;;;;;1.15;1.05;;;8.70;99.90;;;;;;5020704;28;20667;-71
2023/03/09 04:37:01;;;;;;;1.10;1.10;;;8.70;99.90;;;;;;5019939;28;20265;-71
2023/03/09 04:39:27;;;;;;;1.00;0.50;;;8.70;99.90;;;;;;5022794;28;20208;-72
2023/03/09 04:41:52;;;;;;;0.50;0.50;;;8.70;99.90;;;;;;5022525;28;20268;-72
2023/03/09 04:44:18;;;;;;;0.63;0.63;;;8.70;99.90;;;;;;5022000;28;20668;-72
2023/03/09 04:46:43;;;;;;;0.63;0.50;;;8.70;99.90;;;;;;5014398;28;20205;-72
2023/03/09 04:49:09;;;;;;;1.42;0.32;;;8.60;99.90;;;;;;5015055;28;20197;-71
2023/03/09 04:51:34;;;;;;;0.50;0.50;;;8.60;99.90;;;;;;5020448;28;20183;-71
2023/03/09 04:54:00;;;;;;;0.70;0.70;;;8.50;99.90;;;;;;5020130;28;20555;-71
2023/03/09 04:56:26;;;;;;;0.52;0.52;;;8.50;99.90;;;;;;5019460;28;20196;-72
2023/03/09 04:58:51;;;;;;;1.67;0.52;;;8.50;99.90;;;;;;5023478;28;21129;-71
2023/03/09 05:01:17;;;;;;;3.83;0.70;;;8.40;99.90;;;;;;5020318;28;20181;-71
2023/03/09 05:03:42;;;;;;;2.90;0.93;;;8.40;99.90;;;;;;5023016;28;20610;-71
2023/03/09 05:06:08;;;;;;;0.40;0.40;;;8.30;99.90;;;;;;5018349;28;20251;-71
2023/03/09 05:08:34;;;;;;;0.60;0.60;;;8.30;99.90;;;;;;5020458;28;20541;-71
2023/03/09 05:11:00;;;;;;;0.50;0.50;;;8.30;99.90;;;;;;5025627;28;20181;-71
2023/03/09 05:13:25;;;;;;;0.63;0.63;;;8.20;99.90;;;;;;5024962;28;20188;-71
2023/03/09 05:15:51;;;;;;;0.93;0.70;;;8.20;99.90;;;;;;5022984;28;20190;-71
2023/03/09 05:18:17;;;;;;;0.77;0.77;;;8.20;99.90;;;;;;5024226;28;20271;-71
2023/03/09 05:20:42;;;;;;;2.22;0.95;;;8.20;99.90;;;;;;5023620;28;20204;-71
2023/03/09 05:23:08;;;;;;;2.08;0.63;;;8.10;99.90;;;;;;5025641;28;20189;-71
2023/03/09 05:25:34;;;;;;;0.95;0.82;;;8.10;99.90;;;;;;5027785;28;20209;-71
2023/03/09 05:27:59;;;;;;;1.52;1.42;;;8.20;99.90;;;;;;5024832;28;20723;-71
2023/03/09 05:30:25;;;;;;;0.90;0.88;;;8.10;99.90;;;;;;5024445;28;20653;-71
2023/03/09 05:32:51;;;;;;;1.85;1.00;;;8.10;99.90;;;;;;5031030;28;20180;-71
2023/03/09 05:35:19;;;;;;;1.30;1.20;;;8.10;99.90;;;;;;5025575;28;20234;-71
2023/03/09 05:37:46;;;;;;;0.88;0.88;;;8.00;99.90;;;;;;5027117;28;20191;-71
2023/03/09 05:40:13;;;;;;;1.35;1.23;;;8.10;99.90;;;;;;5024469;28;20231;-71
2023/03/09 05:42:40;;;;;;;1.58;1.50;;;8.10;99.90;;;;;;5024324;28;20201;-72
2023/03/09 05:45:06;;;;;;;1.63;1.52;;;8.10;99.90;;;;;;5026926;28;20185;-71
2023/03/09 05:47:32;;;;;;;1.40;1.30;;;8.20;99.90;;;;;;5026597;28;20267;-71
2023/03/09 05:49:58;;;;;;;2.65;0.90;;;8.10;99.90;;;;;;5024451;28;20254;-71
2023/03/09 05:52:24;;;;;;;1.08;0.70;;;8.10;99.90;;;;;;5026065;28;20181;-71
2023/03/09 05:54:49;;;;;;;1.00;0.80;;;8.10;99.90;;;;;;5027469;28;20185;-71
2023/03/09 05:57:15;;;;;;;1.17;1.05;;;8.10;99.90;;;;;;5021545;28;20654;-71
2023/03/09 05:59:41;;;;;;;0.75;0.75;;;8.10;99.90;;;;;;5029706;28;20590;-71
2023/03/09 06:02:06;;;;;;;1.35;1.05;;;8.10;99.90;;;;;;5024008;28;20176;-71
2023/03/09 06:04:32;;;;;;;1.75;1.02;;;8.10;99.90;;;;;;5022997;28;20227;-71
2023/03/09 06:06:58;;;;;;;0.60;0.60;;;8.10;99.90;;;;;;5025079;28;20782;-71
2023/03/09 06:09:25;;;;;;;0.68;0.68;;;8.10;99.90;;;;;;5026630;28;20196;-72
2023/03/09 06:11:51;;;;;;;0.52;0.52;;;8.10;99.90;;;;;;5026862;28;20668;-71
2023/03/09 06:14:16;;;;;;;0.75;0.73;;;8.20;99.90;;;;;;5029026;28;20212;-72
2023/03/09 06:16:42;;;;;;;0.60;0.60;;;8.20;99.90;;;;;;5027655;28;20204;-71
2023/03/09 06:19:08;;;;;;;0.65;0.65;;;8.20;99.90;;;;;;5024576;28;20251;-71
2023/03/09 06:21:34;;;;;;;0.63;0.60;;;8.30;99.90;;;;;;5026127;28;20200;-72
2023/03/09 06:24:00;;;;;;;0.73;0.73;;;8.30;99.90;;;;;;5029954;28;20197;-71
2023/03/09 06:26:25;;;;;;;0.88;0.88;;;8.50;99.90;;;;;;5022551;28;20196;-71
2023/03/09 06:28:51;;;;;;;0.70;0.70;;;8.40;99.90;;;;;;5023376;28;20327;-73
2023/03/09 06:31:18;;;;;;;0.52;0.52;;;8.50;99.90;;;;;;5023343;28;20279;-73
2023/03/09 06:33:44;;;;;;;1.25;0.50;;;8.70;99.90;;;;;;5027604;28;20545;-73
2023/03/09 06:36:12;;;;;;;1.85;0.70;;;8.80;99.90;;;;;;5029818;28;20200;-74
2023/03/09 06:38:38;;;;;;;2.25;1.00;;;9.00;99.90;;;;;;5031096;28;20223;-73
2023/03/09 06:41:04;;;;;;;1.05;0.57;;;9.10;99.90;;;;;;5028720;28;20189;-73
2023/03/09 06:43:30;;;;;;;1.98;0.70;;;9.30;99.90;;;;;;5027542;28;20271;-73
2023/03/09 06:45:55;;;;;;;0.40;0.40;;;9.30;99.90;;;;;;5030435;28;20564;-76
2023/03/09 06:48:21;;;;;;;0.90;0.68;;;9.30;99.90;;;;;;5026615;28;20181;-76
2023/03/09 06:50:48;;;;;;;0.68;0.68;;;9.30;99.90;;;;;;5026826;28;20204;-75
2023/03/09 06:53:14;;;;;;;0.40;0.40;;;9.30;99.90;;;;;;5030193;28;20259;-77
2023/03/09 06:55:40;;;;;;;0.38;0.30;;;9.50;99.90;;;;;;5031677;28;20187;-75
2023/03/09 06:58:06;;;;;;;0.52;0.52;;;9.40;99.90;;;;;;5035442;28;20191;-75
2023/03/09 07:00:37;;;;;;;0.52;0.52;;;9.40;99.90;;;;;;5026975;28;20390;-75
2023/03/09 07:03:06;;;;;;;0.60;0.60;;;9.50;99.90;;;;;;5026520;28;20190;-75
2023/03/09 07:05:32;;;;;;;0.63;0.63;;;9.50;99.90;;;;;;5022739;28;20208;-75
2023/03/09 07:07:57;;;;;;;0.30;0.30;;;9.50;99.90;;;;;;5021353;28;20180;-74
2023/03/09 07:10:23;;;;;;;0.28;0.28;;;9.60;99.90;;;;;;5022072;28;20220;-74
2023/03/09 07:12:49;;;;;;;0.30;0.30;;;9.60;99.90;;;;;;5026252;28;20176;-76
2023/03/09 07:15:15;;;;;;;2.65;0.65;;;9.60;99.90;;;;;;5021765;28;20193;-75
2023/03/09 07:17:42;;;;;;;2.92;0.70;;;9.60;99.90;;;;;;5023515;28;20191;-76
2023/03/09 07:20:11;;;;;;;0.73;0.73;;;9.60;99.90;;;;;;5027390;28;20302;-78
2023/03/09 07:22:37;;;;;;;0.80;0.80;;;9.60;99.90;;;;;;5026391;28;20600;-76
2023/03/09 07:25:04;;;;;;;0.60;0.60;;;9.70;99.90;;;;;;5029433;28;20682;-76
2023/03/09 07:27:30;;;;;;;0.98;0.68;;;9.70;99.90;;;;;;5033364;28;20180;-76
2023/03/09 07:29:57;;;;;;;0.38;0.20;;;9.80;99.90;;;;;;5027504;28;20655;-76
2023/03/09 07:32:23;;;;;;;0.82;0.82;;;9.90;99.90;;;;;;5036184;28;20211;-77
2023/03/09 07:34:49;;;;;;;0.77;0.77;;;9.80;99.90;;;;;;5030614;28;20212;-76
2023/03/09 07:37:15;;;;;;;0.80;0.80;;;9.90;99.90;;;;;;5031129;28;20192;-77
2023/03/09 07:39:41;;;;;;;1.02;0.50;;;9.90;99.90;;;;;;5023794;28;20216;-76
2023/03/09 07:42:07;;;;;;;0.55;0.55;;;9.90;99.90;;;;;;5034725;28;20180;-75
2023/03/09 07:44:32;;;;;;;1.92;1.10;;;9.90;99.90;;;;;;5031670;28;20195;-77
2023/03/09 07:46:58;;;;;;;1.00;0.93;;;9.80;99.90;;;;;;5032790;28;20208;-76
2023/03/09 07:49:23;;;;;;;3.22;1.02;;;9.80;99.90;;;;;;5026867;28;20203;-76
2023/03/09 07:51:49;;;;;;;3.03;1.15;;;9.80;99.90;;;;;;5027835;28;20190;-76
2023/03/09 07:54:15;;;;;;;0.52;0.52;;;9.90;99.90;;;;;;5033308;28;20180;-76
2023/03/09 07:56:42;;;;;;;0.90;0.90;;;9.90;99.90;;;;;;5034491;28;20176;-76
2023/03/09 07:59:15;;;;;;;1.83;1.20;;;10.10;99.90;;;;;;5028664;28;20298;-76
2023/03/09 08:01:40;;;;;;;1.75;1.15;;;10.20;99.90;;;;;;5031072;28;20267;-76
2023/03/09 08:04:06;;;;;;;2.78;1.15;;;10.40;99.90;;;;;;5036540;28;20271;-76
2023/03/09 08:06:32;;;;;;;0.73;0.70;;;10.50;99.90;;;;;;5022258;28;20676;-76
2023/03/09 08:08:57;;;;;;;1.33;1.00;;;10.70;99.90;;;;;;5037652;28;20204;-76
2023/03/09 08:11:23;;;;;;;1.85;0.93;;;10.70;99.90;;;;;;5025701;28;20209;-76
2023/03/09 08:13:48;;;;;;;0.98;0.90;;;10.60;99.90;;;;;;5036859;28;20546;-76
2023/03/09 08:16:14;;;;;;;1.10;1.00;;;10.60;99.90;;;;;;5030298;28;20176;-76
2023/03/09 08:18:41;;;;;;;2.17;1.17;;;10.60;99.90;;;;;;5035223;28;20200;-76
2023/03/09 08:21:10;;;;;;;1.20;0.70;;;10.70;99.90;;;;;;5029246;28;20188;-76
2023/03/09 08:23:40;;;;;;;1.55;1.10;;;11.00;99.90;;;;;;5031694;28;20207;-76
2023/03/09 08:26:08;;;;;;;4.53;1.80;;;11.20;99.90;;;;;;5028615;28;20212;-76
2023/03/09 08:28:33;;;;;;;2.60;1.10;;;11.30;99.90;;;;;;5025033;28;20188;-75
2023/03/09 08:30:59;;;;;;;2.13;1.10;;;11.40;99.90;;;;;;5025332;28;20184;-76
2023/03/09 08:33:25;;;;;;;4.70;1.38;;;11.30;99.90;;;;;;5023835;28;20219;-76
2023/03/09 08:35:50;;;;;;;5.90;1.65;;;11.30;99.90;;;;;;5021529;28;20574;-76
2023/03/09 08:38:16;;;;;;;2.28;1.40;;;11.30;99.90;;;;;;5024853;28;20585;-76
2023/03/09 08:40:43;;;;;;;2.75;1.33;;;11.30;99.90;;;;;;5023651;28;20262;-75
2023/03/09 08:43:09;;;;;;;2.15;1.42;;;11.40;99.90;;;;;;5029193;28;20172;-75
2023/03/09 08:45:34;;;;;;;3.60;1.35;;;11.80;99.90;;;;;;5029371;28;20249;-78
2023/03/09 08:48:00;;;;;;;1.60;1.23;;;12.00;99.90;;;;;;5036085;28;20676;-76
2023/03/09 08:50:25;;;;;;;1.80;1.08;;;12.20;99.90;;;;;;5031639;28;20201;-76
2023/03/09 08:52:51;;;;;;;4.45;2.30;;;12.60;99.90;;;;;;5032631;28;20249;-75
2023/03/09 08:55:17;;;;;;;1.27;0.93;;;12.80;99.90;;;;;;5031298;28;20204;-76
2023/03/09 08:57:42;;;;;;;1.73;1.50;;;13.00;99.90;;;;;;5034146;28;20624;-76
2023/03/09 09:00:10;;;;;;;3.05;1.50;;;12.90;99.90;;;;;;5041553;28;20227;-76
2023/03/09 09:02:36;;;;;;;4.78;1.88;;;13.00;99.90;;;;;;5034915;28;20178;-76
2023/03/09 09:05:03;;;;;;;4.15;1.52;;;13.00;99.90;;;;;;5034578;28;20211;-76
2023/03/09 09:07:29;;;;;;;3.45;2.05;;;13.10;99.90;;;;;;5032021;28;20181;-76
2023/03/09 09:09:55;;;;;;;5.13;2.03;;;13.10;99.90;;;;;;5038837;28;20204;-76
2023/03/09 09:12:22;;;;;;;2.95;1.63;;;13.30;99.90;;;;;;5038023;28;20184;-76
2023/03/09 09:14:47;;;;;;;3.45;2.30;;;13.20;99.90;;;;;;5041814;28;20263;-76
2023/03/09 09:17:13;;;;;;;1.48;1.33;;;13.10;99.90;;;;;;5042587;28;20683;-76
2023/03/09 09:19:40;;;;;;;5.32;1.70;;;13.10;99.90;;;;;;5035840;28;20587;-75
2023/03/09 09:22:08;;;;;;;2.10;1.10;;;13.10;99.90;;;;;;5033948;28;20184;-75
2023/03/09 09:24:38;;;;;;;4.32;1.70;;;13.10;99.90;;;;;;5024634;28;20209;-76
2023/03/09 09:27:06;;;;;;;4.18;1.95;;;13.10;99.90;;;;;;5036919;28;20614;-76
2023/03/09 09:29:32;;;;;;;3.97;1.85;;;13.10;99.90;;;;;;5037326;28;20291;-76
2023/03/09 09:31:59;;;;;;;6.93;2.15;;;13.00;99.90;;;;;;5031961;28;20173;-76
2023/03/09 09:34:24;;;;;;;2.70;1.77;;;12.90;99.90;;;;;;5034260;28;20185;-76
2023/03/09 09:36:50;;;;;;;4.32;1.73;;;12.90;99.90;;;;;;5027681;28;20236;-75
2023/03/09 09:39:17;;;;;;;2.95;1.33;;;13.00;99.90;;;;;;5036696;28;20227;-76
2023/03/09 09:41:47;;;;;;;4.03;1.73;;;13.30;99.90;;;;;;5037017;28;20191;-76
2023/03/09 09:44:18;;;;;;;5.32;1.60;;;13.40;99.90;;;;;;5030950;28;20189;-76
2023/03/09 09:46:45;;;;;;;5.82;1.67;;;13.60;99.90;;;;;;5035509;28;20213;-75
2023/03/09 09:49:20;;;;;;;4.35;1.27;;;13.70;99.90;;;;;;5032802;28;20690;-76
2023/03/09 09:52:01;;;;;;;2.17;1.58;;;13.80;99.90;;;;;;5034870;28;20226;-77
2023/03/09 09:54:49;;;;;;;2.42;1.33;;;13.50;99.90;;;;;;5034987;28;20652;-77
2023/03/09 09:57:22;;;;;;;3.22;1.83;;;13.30;99.90;;;;;;5030937;28;20275;-77
2023/03/09 10:00:03;;;;;;;2.38;1.90;;;13.00;99.90;;;;;;5035898;28;20220;-77
2023/03/09 10:02:55;;;;;;;2.95;1.30;;;12.80;99.90;;;;;;5031146;28;20220;-76
2023/03/09 10:05:56;;;;;;;4.80;2.20;;;12.60;99.90;;;;;;5032678;28;20184;-76
2023/03/09 10:08:38;;;;;;;6.97;1.65;;;12.40;99.90;;;;;;5027378;28;20219;-77
2023/03/09 10:11:10;;;;;;;4.20;1.40;;;12.40;99.90;;;;;;5029574;28;20178;-76
2023/03/09 10:13:47;;;;;;;5.43;2.13;;;12.90;99.90;;;;;;5034508;28;20192;-76
2023/03/09 10:16:22;;;;;;;2.28;1.33;;;13.60;99.90;;;;;;5034410;28;20271;-77
2023/03/09 10:18:53;;;;;;;1.02;0.93;;;14.10;99.90;;;;;;5036839;28;20226;-77
2023/03/09 10:21:44;;;;;;;5.22;2.20;;;14.70;99.90;;;;;;5039895;28;20184;-77
2023/03/09 10:24:25;;;;;;;3.90;1.48;;;14.70;99.90;;;;;;5038864;28;20184;-76
2023/03/09 10:27:31;;;;;;;4.18;1.70;;;14.20;99.90;;;;;;5036421;28;20299;-77
2023/03/09 10:30:09;;;;;;;2.67;1.52;;;13.20;99.90;;;;;;5034109;28;20575;-77
2023/03/09 10:32:49;;;;;;;2.83;1.85;;;12.40;99.90;;;;;;5031198;28;20274;-76
2023/03/09 10:35:28;;;;;;;5.97;1.85;;;11.90;99.90;;;;;;5033218;28;20214;-77
2023/03/09 10:37:54;;;;;;;1.80;1.10;;;11.50;99.90;;;;;;5035953;28;20179;-76
2023/03/09 10:40:32;;;;;;;2.30;1.45;;;11.30;99.90;;;;;;5037775;28;20561;-75
2023/03/09 10:42:59;;;;;;;7.05;1.63;;;11.30;99.90;;;;;;5035981;28;20267;-75
2023/03/09 10:45:30;;;;;;;1.95;1.45;;;11.10;99.90;;;;;;5028293;28;20295;-77
2023/03/09 10:48:02;;;;;;;4.70;1.70;;;10.90;99.90;;;;;;5036420;28;20621;-76
2023/03/09 10:50:32;;;;;;;4.80;2.00;;;10.70;99.90;;;;;;5034495;28;20551;-76
2023/03/09 10:53:14;;;;;;;4.25;2.10;;;10.60;99.90;;;;;;5031775;28;20247;-76
2023/03/09 10:55:45;;;;;;;4.22;2.00;;;10.50;99.90;;;;;;5031440;28;20271;-76
2023/03/09 10:58:21;;;;;;;2.95;1.70;;;10.40;99.90;;;;;;5033829;28;20181;-75
2023/03/09 11:01:12;;;;;;;2.65;1.63;;;10.50;99.90;;;;;;5036080;28;20569;-75
2023/03/09 11:03:41;;;;;;;2.30;1.40;;;10.50;99.90;;;;;;5025200;28;20272;-75
2023/03/09 11:06:12;;;;;;;1.98;1.58;;;10.60;99.90;;;;;;5023970;28;20567;-76
2023/03/09 11:08:40;;;;;;;1.23;1.15;;;10.70;99.90;;;;;;5025134;28;20274;-75
2023/03/09 11:11:14;;;;;;;1.30;1.20;;;10.80;99.90;;;;;;5024490;28;20230;-76
2023/03/09 11:13:47;;;;;;;2.08;1.65;;;11.00;99.90;;;;;;5025291;28;20181;-77
2023/03/09 11:16:23;;;;;;;3.75;1.40;;;10.90;99.90;;;;;;5027956;28;20180;-76
2023/03/09 11:19:02;;;;;;;4.82;2.10;;;10.90;99.90;;;;;;5025909;28;20290;-76
2023/03/09 11:21:28;;;;;;;4.38;2.20;;;10.80;99.90;;;;;;5019869;28;20200;-76
2023/03/09 11:23:53;;;;;;;2.85;1.85;;;10.70;99.90;;;;;;5026841;28;20180;-76
2023/03/09 11:26:23;;;;;;;1.10;1.00;;;10.80;99.90;;;;;;5021256;28;20208;-75
2023/03/09 11:29:05;;;;;;;5.88;1.85;;;10.90;99.90;;;;;;5024223;28;20208;-75
2023/03/09 11:31:37;;;;;;;1.55;1.45;;;11.00;99.90;;;;;;5022204;28;20187;-75
2023/03/09 11:34:07;;;;;;;1.52;1.42;;;11.00;99.90;;;;;;5024207;28;20559;-75
2023/03/09 11:36:43;;;;;;;1.52;1.30;;;10.90;99.90;;;;;;5023129;28;20204;-76
2023/03/09 11:39:31;;;;;;;0.93;0.85;;;10.90;99.90;;;;;;5021653;28;20727;-75
2023/03/09 11:41:59;;;;;;;3.15;1.60;;;10.80;99.90;;;;;;5024044;28;20185;-76
2023/03/09 11:44:49;;;;;;;2.20;1.27;;;10.70;99.90;;;;;;5020458;28;20181;-75
2023/03/09 11:47:25;;;;;;;6.10;1.48;;;10.70;99.90;;;;;;5030188;28;20208;-75
2023/03/09 11:49:54;;;;;;;2.63;1.55;;;10.80;99.90;;;;;;5021945;28;20227;-74
2023/03/09 11:52:30;;;;;;;4.30;1.73;;;10.80;99.90;;;;;;5018540;28;20187;-73
2023/03/09 11:55:01;;;;;;;1.60;1.30;;;10.80;99.90;;;;;;5030331;28;20187;-73
2023/03/09 11:57:28;;;;;;;4.10;1.90;;;11.30;99.90;;;;;;5034372;28;20235;-74
2023/03/09 12:00:05;;;;;;;9.23;2.10;;;12.50;99.90;;;;;;5030788;28;20196;-75
2023/03/09 12:02:53;;;;;;;3.13;1.75;;;14.30;99.90;;;;;;5025286;28;20585;-74
2023/03/09 12:05:20;;;;;;;3.58;1.13;;;16.00;99.90;;;;;;5039191;28;20180;-74
2023/03/09 12:08:16;;;;;;;2.42;1.55;;;17.60;99.90;;;;;;5028940;28;20276;-75
2023/03/09 12:10:54;;;;;;;3.75;1.63;;;19.40;99.90;;;;;;5033696;28;20224;-75
2023/03/09 12:13:43;;;;;;;3.63;1.30;;;21.00;99.90;;;;;;5023451;28;20207;-75
2023/03/09 12:16:16;;;;;;;2.35;1.10;;;22.80;99.90;;;;;;5029473;28;20233;-75
2023/03/09 12:19:16;;;;;;;2.58;0.98;;;23.60;99.90;;;;;;5025013;28;20204;-74
2023/03/09 12:21:46;;;;;;;1.63;0.80;;;22.70;99.90;;;;;;5034435;28;20343;-74
2023/03/09 12:24:33;;;;;;;2.05;0.93;;;21.40;99.90;;;;;;5025128;28;20662;-74
2023/03/09 12:27:26;;;;;;;2.58;0.90;;;19.90;99.90;;;;;;5029137;28;20218;-75
2023/03/09 12:29:59;;;;;;;0.85;0.63;;;18.50;99.90;;;;;;5033155;28;20260;-75
2023/03/09 12:32:24;;;;;;;1.40;1.30;;;17.40;99.90;;;;;;5017155;28;20169;-76
2023/03/09 12:34:55;;;;;;;1.38;0.80;;;16.30;99.90;;;;;;5023921;28;20181;-76
2023/03/09 12:37:36;;;;;;;3.17;1.10;;;15.80;99.90;;;;;;5025336;28;20624;-76
2023/03/09 12:40:19;;;;;;;1.23;0.75;;;15.30;99.90;;;;;;5033795;28;20230;-75
2023/03/09 12:42:49;;;;;;;1.25;0.77;;;14.90;99.90;;;;;;5024451;28;20268;-76
2023/03/09 12:45:18;;;;;;;1.92;1.00;;;14.60;99.90;;;;;;5022531;28;20234;-75
2023/03/09 12:48:09;;;;;;;0.47;0.45;;;14.30;99.90;;;;;;5032082;28;20172;-75
2023/03/09 12:50:45;;;;;;;3.05;0.90;;;14.20;99.90;;;;;;5032794;28;20192;-75
2023/03/09 12:53:14;;;;;;;0.47;0.47;;;13.80;99.90;;;;;;5035398;28;20176;-75
2023/03/09 12:55:39;;;;;;;3.33;1.38;;;13.50;99.90;;;;;;5030707;28;20187;-76
2023/03/09 13:00:59;;;;;;;1.63;1.08;;;12.70;99.90;;;;;;5032670;28;20619;-75
2023/03/09 13:03:31;;;;;;;0.47;0.40;;;12.30;99.90;;;;;;5024773;28;20678;-75
2023/03/09 13:05:59;;;;;;;1.42;0.73;;;12.00;99.90;;;;;;5035685;28;21460;-75